createdAt,value
2019-05-05T00:00:44.748Z,83.38
2019-05-05T00:06:49.585Z,83.27
2019-05-05T00:12:58.682Z,83.63
2019-05-05T00:19:04.795Z,84.14
2019-05-05T00:25:09.807Z,84.25
2019-05-05T00:31:15.025Z,83.93
2019-05-05T00:38:15.422Z,84.50
2019-05-05T00:44:20.048Z,83.87
2019-05-05T00:50:25.305Z,83.81
2019-05-05T00:56:29.989Z,82.70
2019-05-05T01:02:39.055Z,82.19
2019-05-05T01:08:44.554Z,82.60
2019-05-05T01:14:49.270Z,82.58
2019-05-05T01:20:55.218Z,82.52
2019-05-05T01:26:59.901Z,83.08
2019-05-05T01:33:14.544Z,82.65
2019-05-05T01:39:21.036Z,84.41
2019-05-05T01:45:25.671Z,84.21
2019-05-05T01:51:30.350Z,83.41
2019-05-05T01:57:35.048Z,83.07
2019-05-05T02:03:39.851Z,82.21
2019-05-05T02:09:45.096Z,81.50
2019-05-05T02:15:49.844Z,82.86
2019-05-05T02:21:55.136Z,83.03
2019-05-05T02:27:59.790Z,82.61
2019-05-05T02:34:05.453Z,83.66
2019-05-05T02:40:15.669Z,82.77
2019-05-05T02:46:20.805Z,82.95
2019-05-05T02:52:25.799Z,83.19
2019-05-05T02:58:33.958Z,83.38
2019-05-05T03:04:39.555Z,83.46
2019-05-05T03:10:45.989Z,83.79
2019-05-05T03:16:51.685Z,84.47
2019-05-05T03:22:58.058Z,85.56
2019-05-05T03:29:04.875Z,85.58
2019-05-05T03:35:09.837Z,85.32
2019-05-05T03:41:16.358Z,83.73
2019-05-05T03:47:21.380Z,82.83
2019-05-05T03:53:26.566Z,83.65
2019-05-05T03:59:31.285Z,83.95
2019-05-05T04:05:37.724Z,85.47
2019-05-05T04:11:44.349Z,85.56
2019-05-05T04:17:50.344Z,85.15
2019-05-05T04:23:54.896Z,84.81
2019-05-05T04:29:59.531Z,84.31
2019-05-05T04:36:04.144Z,83.51
2019-05-05T04:42:08.679Z,82.40
2019-05-05T04:48:14.956Z,81.80
2019-05-05T04:54:21.147Z,81.23
2019-05-05T05:00:25.783Z,81.93
2019-05-05T05:06:37.736Z,81.60
2019-05-05T05:12:43.584Z,81.62
2019-05-05T05:18:48.284Z,80.03
2019-05-05T05:24:54.106Z,79.32
2019-05-05T05:30:58.837Z,79.46
2019-05-05T05:37:04.196Z,79.97
2019-05-05T05:43:10.749Z,79.35
2019-05-05T05:49:34.791Z,79.36
2019-05-05T05:55:39.454Z,78.58
2019-05-05T06:01:44.471Z,77.85
2019-05-05T06:07:49.045Z,77.20
2019-05-05T06:13:54.500Z,76.56
2019-05-05T06:19:59.112Z,75.69
2019-05-05T06:26:06.724Z,74.52
2019-05-05T06:32:10.019Z,73.72
2019-05-05T06:38:14.567Z,70.48
2019-05-05T06:44:26.547Z,69.77
2019-05-05T06:50:31.096Z,68.76
2019-05-05T06:56:35.638Z,68.57
2019-05-05T07:02:40.357Z,64.57
2019-05-05T07:08:44.905Z,62.34
2019-05-05T07:14:49.459Z,61.65
2019-05-05T07:20:54.611Z,62.42
2019-05-05T07:26:59.246Z,60.71
2019-05-05T07:33:04.608Z,61.08
2019-05-05T07:39:10.610Z,58.05
2019-05-05T07:45:22.496Z,63.52
2019-05-05T07:51:24.129Z,66.60
2019-05-05T07:57:28.395Z,67.45
2019-05-05T08:03:34.719Z,66.65
2019-05-05T08:09:39.428Z,68.02
2019-05-05T08:15:56.874Z,65.47
2019-05-05T08:21:54.124Z,63.69
2019-05-05T08:28:08.766Z,61.72
2019-05-05T08:34:14.276Z,61.44
2019-05-05T08:40:19.245Z,61.84
2019-05-05T08:46:24.779Z,60.14
2019-05-05T08:52:29.411Z,56.19
2019-05-05T08:58:34.917Z,56.27
2019-05-05T09:04:39.458Z,57.54
2019-05-05T09:10:45.273Z,52.97
2019-05-05T09:16:49.938Z,51.12
2019-05-05T09:22:57.217Z,52.02
2019-05-05T09:29:18.452Z,50.67
2019-05-05T09:35:24.048Z,50.06
2019-05-05T09:41:28.748Z,49.28
2019-05-05T09:47:34.354Z,50.31
2019-05-05T09:53:39.035Z,48.23
2019-05-05T09:59:44.152Z,47.74
2019-05-05T10:05:49.093Z,44.03
2019-05-05T10:11:54.126Z,44.13
2019-05-05T10:17:58.853Z,43.10
2019-05-05T10:24:07.704Z,45.12
2019-05-05T10:30:14.282Z,43.38
2019-05-05T10:36:18.933Z,47.97
2019-05-05T10:42:25.145Z,48.73
2019-05-05T10:48:29.699Z,41.10
2019-05-05T10:54:44.019Z,38.04
2019-05-05T11:00:51.163Z,42.94
2019-05-05T11:06:55.908Z,41.14
2019-05-05T11:13:00.457Z,42.02
2019-05-05T11:19:05.241Z,43.37
2019-05-05T11:25:09.788Z,43.69
2019-05-05T11:31:14.410Z,43.34
2019-05-05T11:37:19.252Z,43.05
2019-05-05T11:43:24.662Z,42.51
2019-05-05T11:49:29.406Z,41.87
2019-05-05T11:55:33.977Z,33.33
2019-05-05T12:01:38.626Z,31.16
2019-05-05T12:07:43.737Z,32.69
2019-05-05T12:13:48.480Z,33.44
2019-05-05T12:19:54.107Z,35.46
2019-05-05T12:26:00.475Z,35.24
2019-05-05T12:32:05.099Z,29.16
2019-05-05T12:38:09.661Z,28.59
2019-05-05T12:44:16.007Z,30.52
2019-05-05T12:50:21.035Z,33.23
2019-05-05T12:56:25.668Z,33.65
2019-05-05T13:02:30.397Z,32.37
2019-05-05T13:08:35.039Z,33.39
2019-05-05T13:14:39.626Z,35.75
2019-05-05T13:20:54.689Z,29.37
2019-05-05T13:27:10.240Z,30.66
2019-05-05T13:33:14.166Z,31.84
2019-05-05T13:39:18.866Z,29.52
2019-05-05T13:45:43.606Z,27.29
2019-05-05T13:51:48.368Z,26.58
2019-05-05T13:57:54.722Z,29.68
2019-05-05T14:03:59.250Z,30.05
2019-05-05T14:10:04.362Z,29.07
2019-05-05T14:16:08.914Z,31.84
2019-05-05T14:22:13.477Z,35.52
2019-05-05T14:28:18.311Z,36.05
2019-05-05T14:34:30.342Z,37.63
2019-05-05T14:40:35.116Z,37.75
2019-05-05T14:46:39.666Z,35.13
2019-05-05T14:52:44.239Z,29.83
2019-05-05T14:58:48.792Z,23.07
2019-05-05T15:04:55.001Z,21.90
2019-05-05T15:11:07.284Z,25.35
2019-05-05T15:17:14.004Z,29.24
2019-05-05T15:23:18.202Z,30.09
2019-05-05T15:29:24.987Z,34.23
2019-05-05T15:35:29.261Z,36.67
2019-05-05T15:41:34.167Z,38.54
2019-05-05T15:47:38.867Z,44.31
2019-05-05T15:53:43.421Z,45.69
2019-05-05T15:59:48.003Z,45.24
2019-05-05T16:05:54.340Z,41.91
2019-05-05T16:11:58.919Z,33.09
2019-05-05T16:18:20.189Z,33.18
2019-05-05T16:24:26.554Z,29.71
2019-05-05T16:30:31.127Z,33.83
2019-05-05T16:36:35.670Z,40.39
2019-05-05T16:42:40.421Z,45.82
2019-05-05T16:48:45.399Z,49.17
2019-05-05T16:55:04.539Z,51.37
2019-05-05T17:01:11.026Z,52.30
2019-05-05T17:07:15.585Z,50.47
2019-05-05T17:13:21.778Z,51.09
2019-05-05T17:19:28.057Z,42.54
2019-05-05T17:25:34.239Z,43.80
2019-05-05T17:31:38.964Z,49.33
2019-05-05T17:37:44.234Z,50.21
2019-05-05T17:43:50.558Z,51.47
2019-05-05T17:49:54.983Z,51.40
2019-05-05T17:56:01.176Z,53.26
2019-05-05T18:02:05.887Z,54.64
2019-05-05T18:08:13.815Z,54.69
2019-05-05T18:14:24.028Z,55.24
2019-05-05T18:20:28.773Z,55.97
2019-05-05T18:26:34.062Z,57.01
2019-05-05T18:32:38.954Z,58.42
2019-05-05T18:38:44.457Z,59.58
2019-05-05T18:44:54.058Z,60.06
2019-05-05T18:50:59.200Z,59.83
2019-05-05T18:57:05.317Z,59.04
2019-05-05T19:03:18.609Z,59.62
2019-05-05T19:09:19.581Z,58.96
2019-05-05T19:15:24.578Z,60.17
2019-05-05T19:21:30.945Z,60.52
2019-05-05T19:27:35.502Z,60.49
2019-05-05T19:33:40.043Z,60.85
2019-05-05T19:39:44.587Z,62.27
2019-05-05T19:45:49.137Z,63.10
2019-05-05T19:51:54.252Z,63.34
2019-05-05T19:57:58.905Z,63.90
2019-05-05T20:04:04.927Z,64.47
2019-05-05T20:10:09.799Z,64.07
2019-05-05T20:16:34.010Z,63.80
2019-05-05T20:22:38.071Z,64.33
2019-05-05T20:28:42.684Z,64.53
2019-05-05T20:35:01.033Z,65.29
2019-05-05T20:41:16.246Z,64.79
2019-05-05T20:47:20.887Z,64.96
2019-05-05T20:53:25.433Z,65.93
2019-05-05T20:59:31.098Z,66.66
2019-05-05T21:05:35.986Z,67.38
2019-05-05T21:11:40.554Z,67.31
2019-05-05T21:17:45.162Z,67.41
2019-05-05T21:23:51.369Z,67.60
2019-05-05T21:29:55.888Z,68.54
2019-05-05T21:36:00.431Z,69.97
2019-05-05T21:42:04.981Z,71.07
2019-05-05T21:48:09.524Z,72.29
2019-05-05T21:54:31.771Z,72.41
2019-05-05T22:00:48.358Z,72.68
2019-05-05T22:06:54.075Z,72.50
2019-05-05T22:12:58.737Z,73.52
2019-05-05T22:19:04.650Z,72.84
2019-05-05T22:25:09.521Z,73.14
2019-05-05T22:31:14.261Z,73.55
2019-05-05T22:37:18.891Z,74.16
2019-05-05T22:43:23.886Z,74.45
2019-05-05T22:49:28.741Z,74.52
2019-05-05T22:55:34.898Z,75.37
2019-05-05T23:01:39.690Z,75.82
2019-05-05T23:07:44.228Z,76.38
2019-05-05T23:13:48.782Z,76.78
2019-05-05T23:19:55.902Z,77.14
2019-05-05T23:26:03.763Z,77.29
2019-05-05T23:32:08.421Z,75.99
2019-05-05T23:38:14.374Z,76.77
2019-05-05T23:44:19.106Z,76.00
2019-05-05T23:50:24.296Z,76.06
2019-05-05T23:56:28.835Z,75.79
